ARA225 DGAA-DNAA
Flight info
| Callsign | ARA225 |
|---|---|
| Flight time | 1h 14m |
| Altitude | 23000 |
| Route | EREKA1D EREKA L433 LM/N0465F370 UL433 LAG UR778 KELIG/N0434F230 W951 XIRON UW951 MESES MESES1R |
| Aircraft | B737/M-SDE2E3FGHIRWXY/LB1 |
Departure
| Time | 2026-04-29 20:02 |
|---|---|
| Airport | Kotoka International Airport (DGAA) |
Arrival
| Time | 2026-04-29 21:16 |
|---|---|
| Airport | Nnamdi Azikiwe International Airport (DNAA) |
| Time | Latitude | Longitude | Altitude | Speed | Heading |
|---|---|---|---|---|---|
| 2026-04-29 19:47 | 5.60162 | -0.17191 | 210 ft | 0 kts | 291° |
| 2026-04-29 19:57 | 5.60162 | -0.17190 | 210 ft | 2 kts | 291° |
| 2026-04-29 19:57 | 5.60158 | -0.17180 | 209 ft | 2 kts | 291° |
| 2026-04-29 19:57 | 5.60150 | -0.17159 | 209 ft | 2 kts | 292° |
| 2026-04-29 19:57 | 5.60143 | -0.17144 | 211 ft | 2 kts | 292° |
| 2026-04-29 19:58 | 5.60137 | -0.17128 | 211 ft | 2 kts | 293° |
| 2026-04-29 19:58 | 5.60135 | -0.17124 | 209 ft | 0 kts | 293° |
| 2026-04-29 19:59 | 5.60144 | -0.17124 | 209 ft | 4 kts | 10° |
| 2026-04-29 20:00 | 5.60239 | -0.17051 | 205 ft | 30 kts | 32° |
| 2026-04-29 20:00 | 5.60506 | -0.16939 | 210 ft | 53 kts | 22° |
| 2026-04-29 20:00 | 5.60885 | -0.16784 | 213 ft | 59 kts | 22° |
| 2026-04-29 20:00 | 5.61247 | -0.16632 | 205 ft | 54 kts | 22° |
| 2026-04-29 20:01 | 5.61546 | -0.16496 | 215 ft | 32 kts | 53° |
| 2026-04-29 20:01 | 5.61472 | -0.16344 | 205 ft | 29 kts | 186° |
| 2026-04-29 20:01 | 5.61073 | -0.16497 | 202 ft | 106 kts | 202° |
| 2026-04-29 20:01 | 5.60165 | -0.16886 | 202 ft | 168 kts | 205° |
| 2026-04-29 20:02 | 5.59093 | -0.17367 | 922 ft | 154 kts | 203° |
| 2026-04-29 20:02 | 5.58156 | -0.17783 | 1796 ft | 146 kts | 206° |
| 2026-04-29 20:02 | 5.57189 | -0.18156 | 2223 ft | 159 kts | 182° |
| 2026-04-29 20:02 | 5.56805 | -0.18142 | 2272 ft | 168 kts | 170° |
| 2026-04-29 20:03 | 5.54896 | -0.17194 | 2672 ft | 210 kts | 130° |
| 2026-04-29 20:03 | 5.54311 | -0.15789 | 2850 ft | 233 kts | 99° |
| 2026-04-29 20:03 | 5.54188 | -0.14112 | 3131 ft | 246 kts | 95° |
| 2026-04-29 20:03 | 5.54092 | -0.12389 | 3643 ft | 248 kts | 94° |
| 2026-04-29 20:04 | 5.53997 | -0.10644 | 4085 ft | 257 kts | 94° |
| 2026-04-29 20:04 | 5.53904 | -0.08803 | 4470 ft | 270 kts | 91° |
| 2026-04-29 20:04 | 5.54284 | -0.06959 | 5246 ft | 271 kts | 69° |
| 2026-04-29 20:04 | 5.55082 | -0.05251 | 6117 ft | 271 kts | 65° |
| 2026-04-29 20:05 | 5.55940 | -0.03558 | 6912 ft | 272 kts | 65° |
| 2026-04-29 20:05 | 5.56514 | -0.02441 | 7485 ft | 271 kts | 65° |
| 2026-04-29 20:05 | 5.57377 | -0.00758 | 8386 ft | 270 kts | 65° |
| 2026-04-29 20:05 | 5.58231 | 0.00918 | 9316 ft | 269 kts | 65° |
| 2026-04-29 20:06 | 5.59079 | 0.02591 | 10222 ft | 269 kts | 66° |
| 2026-04-29 20:06 | 5.59946 | 0.04314 | 10660 ft | 288 kts | 66° |
| 2026-04-29 20:06 | 5.60885 | 0.06190 | 10839 ft | 313 kts | 65° |
| 2026-04-29 20:06 | 5.61898 | 0.08214 | 11007 ft | 336 kts | 65° |
| 2026-04-29 20:07 | 5.62977 | 0.10371 | 11271 ft | 352 kts | 65° |
| 2026-04-29 20:07 | 5.64089 | 0.12590 | 11826 ft | 359 kts | 65° |
| 2026-04-29 20:07 | 5.65201 | 0.14809 | 12483 ft | 362 kts | 65° |
| 2026-04-29 20:07 | 5.66336 | 0.17077 | 13159 ft | 365 kts | 65° |
| 2026-04-29 20:08 | 5.67480 | 0.19363 | 13801 ft | 368 kts | 65° |
| 2026-04-29 20:08 | 5.68259 | 0.20923 | 14176 ft | 371 kts | 65° |
| 2026-04-29 20:08 | 5.69801 | 0.24009 | 14902 ft | 376 kts | 65° |
| 2026-04-29 20:08 | 5.70980 | 0.26369 | 15452 ft | 380 kts | 65° |
| 2026-04-29 20:09 | 5.72168 | 0.28749 | 15960 ft | 384 kts | 65° |
| 2026-04-29 20:09 | 5.73371 | 0.31156 | 16466 ft | 388 kts | 65° |
| 2026-04-29 20:09 | 5.74612 | 0.33580 | 16940 ft | 392 kts | 64° |
| 2026-04-29 20:09 | 5.75910 | 0.36007 | 17439 ft | 396 kts | 63° |
| 2026-04-29 20:10 | 5.77232 | 0.38446 | 17903 ft | 399 kts | 63° |
| 2026-04-29 20:10 | 5.78568 | 0.40906 | 18335 ft | 403 kts | 63° |
| 2026-04-29 20:10 | 5.79912 | 0.43389 | 18739 ft | 406 kts | 63° |
| 2026-04-29 20:10 | 5.81261 | 0.45889 | 19161 ft | 407 kts | 63° |
| 2026-04-29 20:11 | 5.82613 | 0.48400 | 19562 ft | 410 kts | 63° |
| 2026-04-29 20:11 | 5.83970 | 0.50926 | 19952 ft | 412 kts | 63° |
| 2026-04-29 20:11 | 5.85332 | 0.53464 | 20329 ft | 414 kts | 63° |
| 2026-04-29 20:11 | 5.86704 | 0.56021 | 20699 ft | 417 kts | 63° |
| 2026-04-29 20:12 | 5.88083 | 0.58592 | 21054 ft | 419 kts | 63° |
| 2026-04-29 20:12 | 5.89470 | 0.61180 | 21414 ft | 421 kts | 63° |
| 2026-04-29 20:12 | 5.90862 | 0.63775 | 21754 ft | 424 kts | 63° |
| 2026-04-29 20:12 | 5.92263 | 0.66389 | 22089 ft | 426 kts | 63° |
| 2026-04-29 20:13 | 5.93672 | 0.69016 | 22410 ft | 428 kts | 63° |
| 2026-04-29 20:13 | 5.95087 | 0.71656 | 22706 ft | 430 kts | 63° |
| 2026-04-29 20:13 | 5.96509 | 0.74309 | 23000 ft | 432 kts | 63° |
| 2026-04-29 20:13 | 5.97936 | 0.76971 | 23293 ft | 434 kts | 63° |
| 2026-04-29 20:14 | 5.99288 | 0.79639 | 23557 ft | 435 kts | 68° |
| 2026-04-29 20:14 | 6.00422 | 0.82461 | 23772 ft | 436 kts | 71° |
| 2026-04-29 20:14 | 6.01442 | 0.85333 | 23986 ft | 438 kts | 72° |
| 2026-04-29 20:14 | 6.02453 | 0.88229 | 24193 ft | 440 kts | 71° |
| 2026-04-29 20:15 | 6.03490 | 0.91129 | 24394 ft | 442 kts | 71° |
| 2026-04-29 20:15 | 6.04544 | 0.93993 | 24595 ft | 444 kts | 70° |
| 2026-04-29 20:15 | 6.05635 | 0.96906 | 24796 ft | 446 kts | 70° |
| 2026-04-29 20:15 | 6.06732 | 0.99825 | 24983 ft | 448 kts | 70° |
| 2026-04-29 20:16 | 6.07891 | 1.02736 | 25174 ft | 450 kts | 68° |
| 2026-04-29 20:16 | 6.09141 | 1.05625 | 25361 ft | 452 kts | 67° |
| 2026-04-29 20:16 | 6.10422 | 1.08514 | 25538 ft | 454 kts | 67° |
| 2026-04-29 20:16 | 6.11706 | 1.11413 | 25716 ft | 455 kts | 67° |
| 2026-04-29 20:17 | 6.12982 | 1.14330 | 25889 ft | 457 kts | 67° |
| 2026-04-29 20:17 | 6.14254 | 1.17268 | 26065 ft | 459 kts | 67° |
| 2026-04-29 20:17 | 6.15522 | 1.20213 | 26229 ft | 460 kts | 67° |
| 2026-04-29 20:17 | 6.16795 | 1.23171 | 26389 ft | 462 kts | 67° |
| 2026-04-29 20:18 | 6.18024 | 1.26157 | 26539 ft | 463 kts | 71° |
| 2026-04-29 20:18 | 6.18892 | 1.29285 | 26690 ft | 464 kts | 79° |
| 2026-04-29 20:18 | 6.19411 | 1.32485 | 26857 ft | 465 kts | 81° |
| 2026-04-29 20:18 | 6.19891 | 1.35706 | 27006 ft | 467 kts | 82° |
| 2026-04-29 20:19 | 6.20369 | 1.38937 | 27148 ft | 468 kts | 81° |
| 2026-04-29 20:19 | 6.20853 | 1.42136 | 27289 ft | 470 kts | 81° |
| 2026-04-29 20:19 | 6.21357 | 1.45381 | 27435 ft | 471 kts | 81° |
| 2026-04-29 20:19 | 6.21870 | 1.48632 | 27578 ft | 472 kts | 81° |
| 2026-04-29 20:20 | 6.22390 | 1.51893 | 27707 ft | 473 kts | 81° |
| 2026-04-29 20:20 | 6.22913 | 1.55164 | 27839 ft | 474 kts | 81° |
| 2026-04-29 20:20 | 6.23438 | 1.58441 | 27968 ft | 475 kts | 81° |
| 2026-04-29 20:20 | 6.23963 | 1.61728 | 28092 ft | 477 kts | 81° |
| 2026-04-29 20:21 | 6.24488 | 1.65020 | 28226 ft | 477 kts | 81° |
| 2026-04-29 20:21 | 6.25012 | 1.68315 | 28430 ft | 477 kts | 81° |
| 2026-04-29 20:21 | 6.25535 | 1.71599 | 28661 ft | 476 kts | 81° |
| 2026-04-29 20:21 | 6.26057 | 1.74881 | 28844 ft | 476 kts | 81° |
| 2026-04-29 20:22 | 6.26579 | 1.78166 | 29010 ft | 477 kts | 81° |
| 2026-04-29 20:22 | 6.27102 | 1.81464 | 29210 ft | 477 kts | 81° |
| 2026-04-29 20:22 | 6.27623 | 1.84760 | 29437 ft | 477 kts | 81° |
| 2026-04-29 20:22 | 6.28142 | 1.88047 | 29650 ft | 477 kts | 81° |
| 2026-04-29 20:23 | 6.28661 | 1.91339 | 29872 ft | 477 kts | 81° |
| 2026-04-29 20:23 | 6.29178 | 1.94625 | 30084 ft | 477 kts | 81° |
| 2026-04-29 20:23 | 6.29697 | 1.97915 | 30296 ft | 476 kts | 81° |
| 2026-04-29 20:23 | 6.30207 | 2.01157 | 30530 ft | 475 kts | 81° |
| 2026-04-29 20:24 | 6.30724 | 2.04437 | 30780 ft | 475 kts | 81° |
| 2026-04-29 20:24 | 6.31239 | 2.07710 | 31030 ft | 474 kts | 81° |
| 2026-04-29 20:24 | 6.31753 | 2.10978 | 31288 ft | 473 kts | 81° |
| 2026-04-29 20:24 | 6.32267 | 2.14242 | 31558 ft | 473 kts | 81° |
| 2026-04-29 20:25 | 6.32780 | 2.17506 | 31830 ft | 472 kts | 81° |
| 2026-04-29 20:25 | 6.33292 | 2.20765 | 32107 ft | 471 kts | 81° |
| 2026-04-29 20:25 | 6.33803 | 2.24020 | 32409 ft | 470 kts | 81° |
| 2026-04-29 20:25 | 6.34313 | 2.27265 | 32718 ft | 469 kts | 81° |
| 2026-04-29 20:26 | 6.34821 | 2.30503 | 32950 ft | 469 kts | 81° |
| 2026-04-29 20:26 | 6.35332 | 2.33762 | 32930 ft | 471 kts | 81° |
| 2026-04-29 20:26 | 6.36490 | 2.40232 | 32929 ft | 469 kts | 73° |
| 2026-04-29 20:27 | 6.38290 | 2.45366 | 32939 ft | 468 kts | 69° |
| 2026-04-29 20:27 | 6.40974 | 2.52463 | 32938 ft | 467 kts | 69° |
| 2026-04-29 20:28 | 6.43232 | 2.58580 | 32935 ft | 467 kts | 70° |
| 2026-04-29 20:28 | 6.45463 | 2.64714 | 32939 ft | 467 kts | 70° |
| 2026-04-29 20:29 | 6.47697 | 2.70865 | 32938 ft | 469 kts | 70° |
| 2026-04-29 20:29 | 6.49946 | 2.77029 | 32938 ft | 470 kts | 69° |
| 2026-04-29 20:30 | 6.52257 | 2.83191 | 32940 ft | 472 kts | 69° |
| 2026-04-29 20:30 | 6.54589 | 2.89377 | 32942 ft | 473 kts | 69° |
| 2026-04-29 20:31 | 6.56920 | 2.95586 | 32947 ft | 474 kts | 69° |
| 2026-04-29 20:31 | 6.59244 | 3.01793 | 32952 ft | 475 kts | 69° |
| 2026-04-29 20:32 | 6.61540 | 3.07928 | 32959 ft | 475 kts | 69° |
| 2026-04-29 20:32 | 6.63864 | 3.14141 | 32963 ft | 474 kts | 69° |
| 2026-04-29 20:33 | 6.66184 | 3.20347 | 32964 ft | 474 kts | 69° |
| 2026-04-29 20:33 | 6.68505 | 3.26555 | 32967 ft | 473 kts | 69° |
| 2026-04-29 20:34 | 6.71270 | 3.32535 | 32960 ft | 472 kts | 57° |
| 2026-04-29 20:34 | 6.75497 | 3.37545 | 32972 ft | 470 kts | 44° |
| 2026-04-29 20:35 | 6.80208 | 3.42111 | 32958 ft | 470 kts | 44° |
| 2026-04-29 20:35 | 6.84914 | 3.46678 | 32957 ft | 470 kts | 44° |
| 2026-04-29 20:36 | 6.89589 | 3.51279 | 32962 ft | 470 kts | 44° |
| 2026-04-29 20:36 | 6.94249 | 3.55895 | 32962 ft | 470 kts | 44° |
| 2026-04-29 20:37 | 6.98907 | 3.60513 | 32963 ft | 470 kts | 44° |
| 2026-04-29 20:37 | 7.03538 | 3.65103 | 32962 ft | 470 kts | 44° |
| 2026-04-29 20:38 | 7.08207 | 3.69731 | 32962 ft | 471 kts | 44° |
| 2026-04-29 20:38 | 7.12871 | 3.74355 | 32965 ft | 471 kts | 44° |
| 2026-04-29 20:39 | 7.17543 | 3.78988 | 32966 ft | 471 kts | 44° |
| 2026-04-29 20:39 | 7.22212 | 3.83621 | 32963 ft | 471 kts | 44° |
| 2026-04-29 20:40 | 7.26882 | 3.88256 | 32966 ft | 471 kts | 44° |
| 2026-04-29 20:40 | 7.31555 | 3.92895 | 32966 ft | 472 kts | 44° |
| 2026-04-29 20:41 | 7.36225 | 3.97534 | 32970 ft | 472 kts | 45° |
| 2026-04-29 20:41 | 7.40278 | 4.02706 | 32982 ft | 471 kts | 56° |
| 2026-04-29 20:42 | 7.44278 | 4.07935 | 32970 ft | 471 kts | 49° |
| 2026-04-29 20:42 | 7.48644 | 4.12869 | 32971 ft | 471 kts | 47° |
| 2026-04-29 20:43 | 7.52973 | 4.17773 | 32969 ft | 472 kts | 48° |
| 2026-04-29 20:43 | 7.57287 | 4.22755 | 32970 ft | 472 kts | 49° |
| 2026-04-29 20:44 | 7.61584 | 4.27751 | 32969 ft | 472 kts | 49° |
| 2026-04-29 20:44 | 7.65883 | 4.32749 | 32976 ft | 471 kts | 49° |
| 2026-04-29 20:45 | 7.70183 | 4.37746 | 32975 ft | 472 kts | 49° |
| 2026-04-29 20:45 | 7.74401 | 4.42817 | 32968 ft | 472 kts | 54° |
| 2026-04-29 20:46 | 7.77723 | 4.48528 | 32977 ft | 473 kts | 60° |
| 2026-04-29 20:46 | 7.80877 | 4.54348 | 32978 ft | 473 kts | 60° |
| 2026-04-29 20:47 | 7.84062 | 4.60156 | 32983 ft | 473 kts | 60° |
| 2026-04-29 20:47 | 7.86733 | 4.64966 | 32981 ft | 473 kts | 60° |
| 2026-04-29 20:48 | 7.90482 | 4.71692 | 32985 ft | 473 kts | 60° |
| 2026-04-29 20:48 | 7.93710 | 4.77487 | 32985 ft | 473 kts | 60° |
| 2026-04-29 20:49 | 7.96937 | 4.83286 | 32980 ft | 474 kts | 60° |
| 2026-04-29 20:49 | 8.00162 | 4.89086 | 32987 ft | 473 kts | 59° |
| 2026-04-29 20:50 | 8.03383 | 4.94881 | 32984 ft | 473 kts | 59° |
| 2026-04-29 20:50 | 8.06581 | 5.00636 | 32980 ft | 473 kts | 59° |
| 2026-04-29 20:51 | 8.09800 | 5.06432 | 32980 ft | 473 kts | 59° |
| 2026-04-29 20:51 | 8.13013 | 5.12219 | 32976 ft | 473 kts | 59° |
| 2026-04-29 20:52 | 8.16237 | 5.18014 | 32973 ft | 473 kts | 59° |
| 2026-04-29 20:52 | 8.18912 | 5.22819 | 32972 ft | 472 kts | 59° |
| 2026-04-29 20:53 | 8.22656 | 5.29547 | 32965 ft | 472 kts | 59° |
| 2026-04-29 20:53 | 8.25350 | 5.34395 | 32965 ft | 472 kts | 59° |
| 2026-04-29 20:54 | 8.30170 | 5.43069 | 32960 ft | 472 kts | 59° |
| 2026-04-29 20:55 | 8.33362 | 5.48818 | 32951 ft | 472 kts | 59° |
| 2026-04-29 20:55 | 8.36593 | 5.54639 | 32948 ft | 472 kts | 59° |
| 2026-04-29 20:56 | 8.39780 | 5.60385 | 32952 ft | 472 kts | 59° |
| 2026-04-29 20:56 | 8.42994 | 5.66180 | 32948 ft | 472 kts | 59° |
| 2026-04-29 20:57 | 8.46204 | 5.71972 | 32947 ft | 472 kts | 60° |
| 2026-04-29 20:57 | 8.49413 | 5.77763 | 32942 ft | 472 kts | 60° |
| 2026-04-29 20:58 | 8.52619 | 5.83553 | 32937 ft | 472 kts | 60° |
| 2026-04-29 20:58 | 8.55825 | 5.89346 | 32940 ft | 472 kts | 60° |
| 2026-04-29 20:59 | 8.58990 | 5.95101 | 32936 ft | 472 kts | 60° |
| 2026-04-29 20:59 | 8.62174 | 6.00906 | 32701 ft | 475 kts | 60° |
| 2026-04-29 20:59 | 8.63790 | 6.03852 | 31852 ft | 480 kts | 60° |
| 2026-04-29 21:00 | 8.65403 | 6.06792 | 30989 ft | 478 kts | 60° |
| 2026-04-29 21:00 | 8.67018 | 6.09737 | 30024 ft | 479 kts | 60° |
| 2026-04-29 21:00 | 8.68637 | 6.12691 | 28820 ft | 481 kts | 61° |
| 2026-04-29 21:00 | 8.70257 | 6.15645 | 27659 ft | 480 kts | 61° |
| 2026-04-29 21:01 | 8.71875 | 6.18598 | 26469 ft | 480 kts | 62° |
| 2026-04-29 21:01 | 8.73492 | 6.21549 | 25367 ft | 479 kts | 62° |
| 2026-04-29 21:01 | 8.75095 | 6.24474 | 24512 ft | 472 kts | 62° |
| 2026-04-29 21:01 | 8.76678 | 6.27350 | 23830 ft | 462 kts | 62° |
| 2026-04-29 21:02 | 8.78240 | 6.30155 | 22974 ft | 455 kts | 62° |
| 2026-04-29 21:02 | 8.79785 | 6.32920 | 22092 ft | 448 kts | 62° |
| 2026-04-29 21:02 | 8.81305 | 6.35642 | 21226 ft | 441 kts | 62° |
| 2026-04-29 21:02 | 8.82799 | 6.38324 | 20397 ft | 435 kts | 62° |
| 2026-04-29 21:03 | 8.84253 | 6.40936 | 19571 ft | 429 kts | 62° |
| 2026-04-29 21:03 | 8.85709 | 6.43554 | 18738 ft | 424 kts | 62° |
| 2026-04-29 21:03 | 8.87134 | 6.46145 | 17841 ft | 419 kts | 64° |
| 2026-04-29 21:03 | 8.88105 | 6.48888 | 17015 ft | 411 kts | 76° |
| 2026-04-29 21:04 | 8.88784 | 6.51665 | 16174 ft | 404 kts | 76° |
| 2026-04-29 21:04 | 8.89465 | 6.54406 | 15365 ft | 399 kts | 76° |
| 2026-04-29 21:04 | 8.90148 | 6.57109 | 14564 ft | 394 kts | 76° |
| 2026-04-29 21:04 | 8.90831 | 6.59775 | 13770 ft | 390 kts | 76° |
| 2026-04-29 21:05 | 8.91514 | 6.62416 | 12887 ft | 386 kts | 76° |
| 2026-04-29 21:05 | 8.92191 | 6.65027 | 12073 ft | 381 kts | 75° |
| 2026-04-29 21:05 | 8.92860 | 6.67604 | 11294 ft | 376 kts | 75° |
| 2026-04-29 21:05 | 8.93517 | 6.70132 | 10914 ft | 362 kts | 75° |
| 2026-04-29 21:06 | 8.94141 | 6.72536 | 10697 ft | 345 kts | 75° |
| 2026-04-29 21:06 | 8.94733 | 6.74817 | 10553 ft | 327 kts | 75° |
| 2026-04-29 21:06 | 8.95297 | 6.76992 | 10421 ft | 312 kts | 76° |
| 2026-04-29 21:06 | 8.95835 | 6.79066 | 10284 ft | 298 kts | 76° |
| 2026-04-29 21:07 | 8.96348 | 6.81047 | 10170 ft | 285 kts | 75° |
| 2026-04-29 21:07 | 8.96839 | 6.82942 | 10054 ft | 273 kts | 75° |
| 2026-04-29 21:07 | 8.97310 | 6.84758 | 9932 ft | 262 kts | 75° |
| 2026-04-29 21:07 | 8.97656 | 6.86556 | 9563 ft | 261 kts | 89° |
| 2026-04-29 21:08 | 8.97362 | 6.88348 | 9241 ft | 260 kts | 109° |
| 2026-04-29 21:08 | 8.96589 | 6.90004 | 8912 ft | 260 kts | 115° |
| 2026-04-29 21:08 | 8.95776 | 6.91611 | 8560 ft | 260 kts | 115° |
| 2026-04-29 21:08 | 8.94949 | 6.93232 | 8210 ft | 259 kts | 115° |
| 2026-04-29 21:09 | 8.94124 | 6.94857 | 7864 ft | 259 kts | 115° |
| 2026-04-29 21:09 | 8.93304 | 6.96479 | 7534 ft | 259 kts | 116° |
| 2026-04-29 21:09 | 8.92484 | 6.98108 | 7172 ft | 260 kts | 116° |
| 2026-04-29 21:09 | 8.91661 | 6.99745 | 6826 ft | 261 kts | 116° |
| 2026-04-29 21:10 | 8.90835 | 7.01392 | 6478 ft | 263 kts | 116° |
| 2026-04-29 21:10 | 8.90007 | 7.03044 | 6108 ft | 265 kts | 116° |
| 2026-04-29 21:10 | 8.89175 | 7.04703 | 5757 ft | 264 kts | 117° |
| 2026-04-29 21:10 | 8.88348 | 7.06354 | 5527 ft | 260 kts | 117° |
| 2026-04-29 21:11 | 8.87472 | 7.07919 | 5416 ft | 249 kts | 124° |
| 2026-04-29 21:11 | 8.86491 | 7.09325 | 5306 ft | 240 kts | 126° |
| 2026-04-29 21:11 | 8.85527 | 7.10671 | 5187 ft | 232 kts | 126° |
| 2026-04-29 21:11 | 8.84607 | 7.11974 | 5070 ft | 224 kts | 122° |
| 2026-04-29 21:12 | 8.84173 | 7.13447 | 4873 ft | 222 kts | 87° |
| 2026-04-29 21:12 | 8.84665 | 7.14909 | 4648 ft | 225 kts | 53° |
| 2026-04-29 21:12 | 8.85853 | 7.15933 | 4273 ft | 231 kts | 34° |
| 2026-04-29 21:12 | 8.87190 | 7.16855 | 3939 ft | 233 kts | 34° |
| 2026-04-29 21:13 | 8.88524 | 7.17785 | 3670 ft | 230 kts | 34° |
| 2026-04-29 21:13 | 8.89813 | 7.18686 | 3409 ft | 220 kts | 35° |
| 2026-04-29 21:13 | 8.91022 | 7.19533 | 3128 ft | 209 kts | 35° |
| 2026-04-29 21:13 | 8.92183 | 7.20347 | 2861 ft | 197 kts | 35° |
| 2026-04-29 21:14 | 8.93239 | 7.21087 | 2814 ft | 174 kts | 35° |
| 2026-04-29 21:14 | 8.94179 | 7.21744 | 2667 ft | 154 kts | 35° |
| 2026-04-29 21:14 | 8.95034 | 7.22322 | 2295 ft | 145 kts | 34° |
| 2026-04-29 21:14 | 8.95881 | 7.22883 | 1948 ft | 144 kts | 34° |
| 2026-04-29 21:15 | 8.96690 | 7.23461 | 1715 ft | 142 kts | 37° |
| 2026-04-29 21:15 | 8.97507 | 7.24066 | 1590 ft | 148 kts | 36° |
| 2026-04-29 21:15 | 8.98338 | 7.24657 | 1369 ft | 145 kts | 35° |
| 2026-04-29 21:15 | 8.99145 | 7.25230 | 1185 ft | 139 kts | 34° |
| 2026-04-29 21:16 | 8.99906 | 7.25770 | 1101 ft | 116 kts | 34° |
| 2026-04-29 21:16 | 9.00385 | 7.26107 | 1104 ft | 52 kts | 35° |
| 2026-04-29 21:16 | 9.00614 | 7.26268 | 1108 ft | 37 kts | 35° |
| 2026-04-29 21:16 | 9.00689 | 7.26388 | 1107 ft | 14 kts | 123° |
| 2026-04-29 21:17 | 9.00641 | 7.26470 | 1107 ft | 13 kts | 93° |
| 2026-04-29 21:17 | 9.00694 | 7.26533 | 1114 ft | 11 kts | 35° |
| 2026-04-29 21:17 | 9.00756 | 7.26578 | 1113 ft | 11 kts | 36° |
| 2026-04-29 21:17 | 9.00776 | 7.26651 | 1122 ft | 13 kts | 88° |
| 2026-04-29 21:18 | 9.00719 | 7.26695 | 1124 ft | 8 kts | 179° |
| 2026-04-29 21:18 | 9.00695 | 7.26695 | 1123 ft | 0 kts | 179° |